CheckWX is a tool to help pilots better visualize weather data.  It is not intended as a substitute for an official pre-flight weather briefing.

04:51:56 UTC

EGLC METAR
London City Airport
London, United Kingdom
Current

32 mins ago

EGLC 260420Z AUTO 08003KT 9000 NCD 19/16 Q1018
Observed
Aug-26 @ 04:20 UTC
Wind
  • 080° at 3 KTS
Visibility
9,000 meters
Flight Rules
VFR
Cloud Levels
  • Clear skies
Temperature
19°C / 66°F
Dewpoint
16°C / 61°F
Humidity
83%
Altimeter
30.06" Hg
Pressure
1017.92 hPa
Previous

1 hour ago

EGLC 260350Z AUTO 08003KT 7000 NCD 19/16 Q1018
Observed
Aug-26 @ 03:50 UTC
Wind
  • 080° at 3 KTS
Visibility
7,000 meters
Flight Rules
MVFR
Cloud Levels
  • Clear skies
Temperature
19°C / 66°F
Dewpoint
16°C / 61°F
Humidity
83%
Altimeter
30.06" Hg
Pressure
1017.92 hPa
Previous

2 hours ago

EGLC 260320Z AUTO 08003KT 7000 NCD 20/16 Q1018
Observed
Aug-26 @ 03:20 UTC
Wind
  • 080° at 3 KTS
Visibility
7,000 meters
Flight Rules
MVFR
Cloud Levels
  • Clear skies
Temperature
20°C / 68°F
Dewpoint
16°C / 61°F
Humidity
78%
Altimeter
30.06" Hg
Pressure
1017.92 hPa